KALM

Alamogordo-White Sands Regional Airport

Alamogordo, New Mexico, USA
METAR KALM 180255Z AUTO 18005KT VCTS BKN048 05/M02 A3010 RMK AO2 LTG DSNT SE AND S
Observed Flight Rules
Dec-18 @ 02:55 UTC (20 minutes ago)
Wind Clouds Conditions
180° at 5 knots
  • Broken at 4,800' AGL
  • Area Thunderstorm
Temperatures Readings
Current 5°C / 41°F
Dewpoint -2°C / 28°F
Humidity 61%
Altimeter 30.1" Hg
Pressure 1019 hPa
Elevation 1279
METAR KALM 180255Z AUTO 18005KT VCTS BKN048 05/M02 A3010 RMK AO2 LTG DSNT SE AND S
Observed Flight Rules
Dec-18 @ 02:55 UTC
(20 minutes ago)
Wind
180° at 5 knots
Clouds
  • Broken at 4,800' AGL
Conditions
  • Area Thunderstorm
Temperature Dewpoint
5°C / 41°F -2°C / 28°F
Humidity Altimeter Pressure
61% 30.1" Hg 1019 hPa